sensor_id;sensor_type;location;lat;lon;timestamp;P1;durP1;ratioP1;P2;durP2;ratioP2
6432;SDS011;3249;42.690;23.260;2024-02-14T00:01:19;6.43;;;5.93;;
6432;SDS011;3249;42.690;23.260;2024-02-14T00:03:49;7.67;;;6.97;;
6432;SDS011;3249;42.690;23.260;2024-02-14T00:06:18;7.23;;;6.53;;
6432;SDS011;3249;42.690;23.260;2024-02-14T00:08:52;6.03;;;5.53;;
6432;SDS011;3249;42.690;23.260;2024-02-14T00:11:22;6.73;;;6.13;;
6432;SDS011;3249;42.690;23.260;2024-02-14T00:13:51;8.47;;;7.57;;
6432;SDS011;3249;42.690;23.260;2024-02-14T00:16:21;6.70;;;6.17;;
6432;SDS011;3249;42.690;23.260;2024-02-14T00:18:51;8.23;;;7.47;;
6432;SDS011;3249;42.690;23.260;2024-02-14T00:21:21;8.17;;;7.47;;
6432;SDS011;3249;42.690;23.260;2024-02-14T00:23:53;7.70;;;7.03;;
6432;SDS011;3249;42.690;23.260;2024-02-14T00:26:23;8.20;;;7.40;;
6432;SDS011;3249;42.690;23.260;2024-02-14T00:28:53;7.87;;;7.07;;
6432;SDS011;3249;42.690;23.260;2024-02-14T00:31:23;9.63;;;6.47;;
6432;SDS011;3249;42.690;23.260;2024-02-14T00:34:10;7.50;;;6.80;;
6432;SDS011;3249;42.690;23.260;2024-02-14T00:36:40;7.63;;;6.90;;
6432;SDS011;3249;42.690;23.260;2024-02-14T00:39:12;7.47;;;6.70;;
6432;SDS011;3249;42.690;23.260;2024-02-14T00:41:42;9.17;;;8.13;;
6432;SDS011;3249;42.690;23.260;2024-02-14T00:44:11;14.00;;;12.50;;
6432;SDS011;3249;42.690;23.260;2024-02-14T00:46:42;15.63;;;13.80;;
6432;SDS011;3249;42.690;23.260;2024-02-14T00:49:12;8.60;;;7.77;;
6432;SDS011;3249;42.690;23.260;2024-02-14T00:51:42;9.83;;;8.87;;
6432;SDS011;3249;42.690;23.260;2024-02-14T00:54:13;9.67;;;8.60;;
6432;SDS011;3249;42.690;23.260;2024-02-14T00:56:43;8.10;;;7.30;;
6432;SDS011;3249;42.690;23.260;2024-02-14T00:59:12;8.20;;;7.40;;
6432;SDS011;3249;42.690;23.260;2024-02-14T01:01:42;8.33;;;7.53;;
6432;SDS011;3249;42.690;23.260;2024-02-14T01:04:13;9.27;;;8.37;;
6432;SDS011;3249;42.690;23.260;2024-02-14T01:06:42;8.13;;;7.20;;
6432;SDS011;3249;42.690;23.260;2024-02-14T01:09:15;8.27;;;7.37;;
6432;SDS011;3249;42.690;23.260;2024-02-14T01:11:45;9.43;;;7.63;;
6432;SDS011;3249;42.690;23.260;2024-02-14T01:14:14;8.10;;;7.30;;
6432;SDS011;3249;42.690;23.260;2024-02-14T01:16:44;8.70;;;7.80;;
6432;SDS011;3249;42.690;23.260;2024-02-14T01:19:15;8.70;;;7.80;;
6432;SDS011;3249;42.690;23.260;2024-02-14T01:21:45;9.40;;;8.50;;
6432;SDS011;3249;42.690;23.260;2024-02-14T01:24:17;9.60;;;8.37;;
6432;SDS011;3249;42.690;23.260;2024-02-14T01:26:47;10.83;;;7.90;;
6432;SDS011;3249;42.690;23.260;2024-02-14T01:29:20;9.00;;;8.20;;
6432;SDS011;3249;42.690;23.260;2024-02-14T01:31:49;8.17;;;7.43;;
6432;SDS011;3249;42.690;23.260;2024-02-14T01:34:18;10.17;;;8.30;;
6432;SDS011;3249;42.690;23.260;2024-02-14T01:36:48;8.80;;;7.90;;
6432;SDS011;3249;42.690;23.260;2024-02-14T01:39:20;9.83;;;8.83;;
6432;SDS011;3249;42.690;23.260;2024-02-14T01:41:49;9.10;;;7.97;;
6432;SDS011;3249;42.690;23.260;2024-02-14T01:44:19;7.27;;;6.60;;
6432;SDS011;3249;42.690;23.260;2024-02-14T01:46:48;9.20;;;8.23;;
6432;SDS011;3249;42.690;23.260;2024-02-14T01:49:18;9.37;;;8.47;;
6432;SDS011;3249;42.690;23.260;2024-02-14T01:51:47;9.67;;;8.67;;
6432;SDS011;3249;42.690;23.260;2024-02-14T01:54:20;8.63;;;7.83;;
6432;SDS011;3249;42.690;23.260;2024-02-14T01:56:50;10.13;;;8.93;;
6432;SDS011;3249;42.690;23.260;2024-02-14T01:59:20;11.87;;;8.10;;
6432;SDS011;3249;42.690;23.260;2024-02-14T02:01:50;8.97;;;8.07;;
6432;SDS011;3249;42.690;23.260;2024-02-14T02:04:20;9.90;;;8.23;;
6432;SDS011;3249;42.690;23.260;2024-02-14T02:06:50;11.37;;;8.83;;
6432;SDS011;3249;42.690;23.260;2024-02-14T02:09:24;9.20;;;7.60;;
6432;SDS011;3249;42.690;23.260;2024-02-14T02:11:53;8.67;;;7.87;;
6432;SDS011;3249;42.690;23.260;2024-02-14T02:14:43;9.47;;;8.47;;
6432;SDS011;3249;42.690;23.260;2024-02-14T02:17:33;9.23;;;8.33;;
6432;SDS011;3249;42.690;23.260;2024-02-14T02:20:22;11.47;;;8.73;;
6432;SDS011;3249;42.690;23.260;2024-02-14T02:22:56;7.93;;;7.23;;
6432;SDS011;3249;42.690;23.260;2024-02-14T02:25:45;7.60;;;6.90;;
6432;SDS011;3249;42.690;23.260;2024-02-14T02:28:35;8.87;;;7.77;;
6432;SDS011;3249;42.690;23.260;2024-02-14T02:31:05;8.60;;;7.87;;
6432;SDS011;3249;42.690;23.260;2024-02-14T02:33:36;9.13;;;8.17;;
6432;SDS011;3249;42.690;23.260;2024-02-14T02:36:07;8.70;;;7.90;;
6432;SDS011;3249;42.690;23.260;2024-02-14T02:42:17;11.27;;;8.20;;
6432;SDS011;3249;42.690;23.260;2024-02-14T02:45:13;9.73;;;8.83;;
6432;SDS011;3249;42.690;23.260;2024-02-14T02:48:20;7.57;;;6.87;;
6432;SDS011;3249;42.690;23.260;2024-02-14T02:50:56;8.70;;;7.83;;
6432;SDS011;3249;42.690;23.260;2024-02-14T02:53:45;9.77;;;8.77;;
6432;SDS011;3249;42.690;23.260;2024-02-14T02:56:36;11.10;;;8.83;;
6432;SDS011;3249;42.690;23.260;2024-02-14T02:59:07;10.07;;;9.07;;
6432;SDS011;3249;42.690;23.260;2024-02-14T03:01:39;10.47;;;8.63;;
6432;SDS011;3249;42.690;23.260;2024-02-14T03:04:30;10.23;;;9.23;;
6432;SDS011;3249;42.690;23.260;2024-02-14T03:07:15;11.70;;;8.77;;
6432;SDS011;3249;42.690;23.260;2024-02-14T03:10:05;10.47;;;9.03;;
6432;SDS011;3249;42.690;23.260;2024-02-14T03:12:57;10.07;;;9.07;;
6432;SDS011;3249;42.690;23.260;2024-02-14T03:15:47;9.10;;;7.93;;
6432;SDS011;3249;42.690;23.260;2024-02-14T03:18:16;9.53;;;8.53;;
6432;SDS011;3249;42.690;23.260;2024-02-14T03:20:46;10.10;;;8.70;;
6432;SDS011;3249;42.690;23.260;2024-02-14T03:23:15;10.87;;;9.60;;
6432;SDS011;3249;42.690;23.260;2024-02-14T03:25:45;9.30;;;8.33;;
6432;SDS011;3249;42.690;23.260;2024-02-14T03:28:17;10.63;;;8.67;;
6432;SDS011;3249;42.690;23.260;2024-02-14T03:30:46;8.87;;;8.07;;
6432;SDS011;3249;42.690;23.260;2024-02-14T03:33:16;8.13;;;7.33;;
6432;SDS011;3249;42.690;23.260;2024-02-14T03:35:45;9.97;;;8.97;;
6432;SDS011;3249;42.690;23.260;2024-02-14T03:38:24;9.33;;;8.53;;
6432;SDS011;3249;42.690;23.260;2024-02-14T03:40:53;9.27;;;8.30;;
6432;SDS011;3249;42.690;23.260;2024-02-14T03:43:26;19.33;;;15.47;;
6432;SDS011;3249;42.690;23.260;2024-02-14T03:45:55;9.10;;;7.70;;
6432;SDS011;3249;42.690;23.260;2024-02-14T03:48:24;11.03;;;9.13;;
6432;SDS011;3249;42.690;23.260;2024-02-14T03:50:53;11.23;;;9.17;;
6432;SDS011;3249;42.690;23.260;2024-02-14T03:53:23;12.10;;;10.23;;
6432;SDS011;3249;42.690;23.260;2024-02-14T03:55:52;9.67;;;8.77;;
6432;SDS011;3249;42.690;23.260;2024-02-14T03:58:21;10.77;;;9.67;;
6432;SDS011;3249;42.690;23.260;2024-02-14T04:00:53;10.67;;;9.23;;
6432;SDS011;3249;42.690;23.260;2024-02-14T04:03:23;10.83;;;9.00;;
6432;SDS011;3249;42.690;23.260;2024-02-14T04:05:54;10.67;;;9.60;;
6432;SDS011;3249;42.690;23.260;2024-02-14T04:08:24;9.40;;;8.50;;
6432;SDS011;3249;42.690;23.260;2024-02-14T04:10:55;10.00;;;9.00;;
6432;SDS011;3249;42.690;23.260;2024-02-14T04:13:25;13.77;;;10.03;;
6432;SDS011;3249;42.690;23.260;2024-02-14T04:15:56;10.13;;;9.23;;
6432;SDS011;3249;42.690;23.260;2024-02-14T04:18:35;14.87;;;9.10;;
6432;SDS011;3249;42.690;23.260;2024-02-14T04:21:07;11.27;;;9.10;;
6432;SDS011;3249;42.690;23.260;2024-02-14T04:23:37;10.30;;;9.20;;
6432;SDS011;3249;42.690;23.260;2024-02-14T04:26:06;10.97;;;9.87;;
6432;SDS011;3249;42.690;23.260;2024-02-14T04:28:35;11.23;;;9.73;;
6432;SDS011;3249;42.690;23.260;2024-02-14T04:31:10;11.27;;;10.10;;
6432;SDS011;3249;42.690;23.260;2024-02-14T04:33:47;13.67;;;9.97;;
6432;SDS011;3249;42.690;23.260;2024-02-14T04:36:17;13.47;;;10.87;;
6432;SDS011;3249;42.690;23.260;2024-02-14T04:38:48;11.87;;;10.67;;
6432;SDS011;3249;42.690;23.260;2024-02-14T04:41:19;11.93;;;10.43;;
6432;SDS011;3249;42.690;23.260;2024-02-14T04:43:49;13.63;;;11.40;;
6432;SDS011;3249;42.690;23.260;2024-02-14T04:46:21;16.13;;;11.60;;
6432;SDS011;3249;42.690;23.260;2024-02-14T04:48:50;12.53;;;10.60;;
6432;SDS011;3249;42.690;23.260;2024-02-14T04:51:20;12.07;;;10.67;;
6432;SDS011;3249;42.690;23.260;2024-02-14T04:53:49;13.20;;;11.03;;
6432;SDS011;3249;42.690;23.260;2024-02-14T04:56:19;15.40;;;10.60;;
6432;SDS011;3249;42.690;23.260;2024-02-14T04:58:48;12.67;;;11.37;;
6432;SDS011;3249;42.690;23.260;2024-02-14T05:01:17;12.60;;;10.37;;
6432;SDS011;3249;42.690;23.260;2024-02-14T05:03:50;12.10;;;10.27;;
6432;SDS011;3249;42.690;23.260;2024-02-14T05:06:19;12.77;;;10.93;;
6432;SDS011;3249;42.690;23.260;2024-02-14T05:08:48;13.83;;;11.37;;
6432;SDS011;3249;42.690;23.260;2024-02-14T05:11:18;12.43;;;10.63;;
6432;SDS011;3249;42.690;23.260;2024-02-14T05:13:47;12.57;;;11.17;;
6432;SDS011;3249;42.690;23.260;2024-02-14T05:16:17;15.37;;;12.93;;
6432;SDS011;3249;42.690;23.260;2024-02-14T05:18:49;12.83;;;11.13;;
6432;SDS011;3249;42.690;23.260;2024-02-14T05:21:20;14.73;;;10.23;;
6432;SDS011;3249;42.690;23.260;2024-02-14T05:23:50;12.60;;;11.20;;
6432;SDS011;3249;42.690;23.260;2024-02-14T05:26:19;13.27;;;11.40;;
6432;SDS011;3249;42.690;23.260;2024-02-14T05:28:48;13.93;;;11.57;;
6432;SDS011;3249;42.690;23.260;2024-02-14T05:31:17;15.57;;;11.83;;
6432;SDS011;3249;42.690;23.260;2024-02-14T05:33:49;12.90;;;11.60;;
6432;SDS011;3249;42.690;23.260;2024-02-14T05:36:19;10.37;;;8.97;;
6432;SDS011;3249;42.690;23.260;2024-02-14T05:38:48;12.47;;;11.17;;
6432;SDS011;3249;42.690;23.260;2024-02-14T05:41:18;14.10;;;12.60;;
6432;SDS011;3249;42.690;23.260;2024-02-14T05:43:49;13.80;;;12.07;;
6432;SDS011;3249;42.690;23.260;2024-02-14T05:46:18;15.67;;;12.27;;
6432;SDS011;3249;42.690;23.260;2024-02-14T05:48:51;14.63;;;11.97;;
6432;SDS011;3249;42.690;23.260;2024-02-14T05:51:22;13.03;;;10.33;;
6432;SDS011;3249;42.690;23.260;2024-02-14T05:53:52;13.03;;;9.73;;
6432;SDS011;3249;42.690;23.260;2024-02-14T05:56:21;14.00;;;11.63;;
6432;SDS011;3249;42.690;23.260;2024-02-14T05:58:50;14.03;;;10.93;;
6432;SDS011;3249;42.690;23.260;2024-02-14T06:01:20;11.50;;;9.40;;
6432;SDS011;3249;42.690;23.260;2024-02-14T06:03:51;12.00;;;10.63;;
6432;SDS011;3249;42.690;23.260;2024-02-14T06:06:21;11.93;;;10.67;;
6432;SDS011;3249;42.690;23.260;2024-02-14T06:08:51;12.23;;;11.00;;
6432;SDS011;3249;42.690;23.260;2024-02-14T06:11:21;10.60;;;9.50;;
6432;SDS011;3249;42.690;23.260;2024-02-14T06:13:50;14.53;;;10.40;;
6432;SDS011;3249;42.690;23.260;2024-02-14T06:16:19;15.10;;;11.17;;
6432;SDS011;3249;42.690;23.260;2024-02-14T06:18:48;13.90;;;10.70;;
6432;SDS011;3249;42.690;23.260;2024-02-14T06:21:21;11.03;;;9.37;;
6432;SDS011;3249;42.690;23.260;2024-02-14T06:23:51;11.27;;;9.47;;
6432;SDS011;3249;42.690;23.260;2024-02-14T06:26:20;12.17;;;9.57;;
6432;SDS011;3249;42.690;23.260;2024-02-14T06:28:50;10.43;;;9.27;;
6432;SDS011;3249;42.690;23.260;2024-02-14T06:31:20;12.67;;;9.97;;
6432;SDS011;3249;42.690;23.260;2024-02-14T06:33:53;12.27;;;10.63;;
6432;SDS011;3249;42.690;23.260;2024-02-14T06:36:25;13.17;;;11.03;;
6432;SDS011;3249;42.690;23.260;2024-02-14T06:38:54;12.17;;;10.17;;
6432;SDS011;3249;42.690;23.260;2024-02-14T06:41:24;12.27;;;11.03;;
6432;SDS011;3249;42.690;23.260;2024-02-14T06:43:55;11.50;;;10.27;;
6432;SDS011;3249;42.690;23.260;2024-02-14T06:46:24;12.50;;;9.87;;
6432;SDS011;3249;42.690;23.260;2024-02-14T06:48:53;11.97;;;10.53;;
6432;SDS011;3249;42.690;23.260;2024-02-14T06:51:25;9.57;;;8.67;;
6432;SDS011;3249;42.690;23.260;2024-02-14T06:53:56;9.80;;;8.80;;
6432;SDS011;3249;42.690;23.260;2024-02-14T06:56:26;10.53;;;9.53;;
6432;SDS011;3249;42.690;23.260;2024-02-14T06:58:55;12.33;;;9.67;;
6432;SDS011;3249;42.690;23.260;2024-02-14T07:01:25;9.77;;;8.73;;
6432;SDS011;3249;42.690;23.260;2024-02-14T07:03:55;12.13;;;9.27;;
6432;SDS011;3249;42.690;23.260;2024-02-14T07:06:26;10.77;;;8.67;;
6432;SDS011;3249;42.690;23.260;2024-02-14T07:08:56;16.17;;;9.10;;
6432;SDS011;3249;42.690;23.260;2024-02-14T07:11:44;9.63;;;8.77;;
6432;SDS011;3249;42.690;23.260;2024-02-14T07:14:14;10.27;;;8.87;;
6432;SDS011;3249;42.690;23.260;2024-02-14T07:16:43;11.00;;;8.43;;
6432;SDS011;3249;42.690;23.260;2024-02-14T07:19:13;10.17;;;8.77;;
6432;SDS011;3249;42.690;23.260;2024-02-14T07:21:45;6.67;;;5.90;;
6432;SDS011;3249;42.690;23.260;2024-02-14T07:24:14;10.27;;;8.60;;
6432;SDS011;3249;42.690;23.260;2024-02-14T07:26:44;9.63;;;8.33;;
6432;SDS011;3249;42.690;23.260;2024-02-14T07:29:17;9.33;;;8.40;;
6432;SDS011;3249;42.690;23.260;2024-02-14T07:31:46;10.23;;;8.90;;
6432;SDS011;3249;42.690;23.260;2024-02-14T07:34:20;9.50;;;8.50;;
6432;SDS011;3249;42.690;23.260;2024-02-14T07:36:52;8.90;;;8.00;;
6432;SDS011;3249;42.690;23.260;2024-02-14T07:39:22;10.93;;;8.70;;
6432;SDS011;3249;42.690;23.260;2024-02-14T07:41:51;9.83;;;8.93;;
6432;SDS011;3249;42.690;23.260;2024-02-14T07:44:22;9.07;;;8.27;;
6432;SDS011;3249;42.690;23.260;2024-02-14T07:46:52;10.73;;;8.80;;
6432;SDS011;3249;42.690;23.260;2024-02-14T07:49:21;9.67;;;7.50;;
6432;SDS011;3249;42.690;23.260;2024-02-14T07:51:53;10.93;;;8.90;;
6432;SDS011;3249;42.690;23.260;2024-02-14T07:54:22;8.63;;;7.83;;
6432;SDS011;3249;42.690;23.260;2024-02-14T07:56:52;7.83;;;6.53;;
6432;SDS011;3249;42.690;23.260;2024-02-14T07:59:21;11.57;;;8.63;;
6432;SDS011;3249;42.690;23.260;2024-02-14T08:01:50;8.67;;;7.87;;
6432;SDS011;3249;42.690;23.260;2024-02-14T08:04:19;11.50;;;9.13;;
6432;SDS011;3249;42.690;23.260;2024-02-14T08:06:49;12.37;;;9.03;;
6432;SDS011;3249;42.690;23.260;2024-02-14T08:09:20;9.20;;;8.40;;
6432;SDS011;3249;42.690;23.260;2024-02-14T08:11:49;8.70;;;8.00;;
6432;SDS011;3249;42.690;23.260;2024-02-14T08:14:20;9.20;;;8.30;;
6432;SDS011;3249;42.690;23.260;2024-02-14T08:16:49;9.43;;;8.57;;
6432;SDS011;3249;42.690;23.260;2024-02-14T08:19:19;10.70;;;7.30;;
6432;SDS011;3249;42.690;23.260;2024-02-14T08:21:48;9.13;;;8.30;;
6432;SDS011;3249;42.690;23.260;2024-02-14T08:24:20;9.20;;;7.73;;
6432;SDS011;3249;42.690;23.260;2024-02-14T08:26:49;9.03;;;8.10;;
6432;SDS011;3249;42.690;23.260;2024-02-14T08:29:19;8.93;;;8.13;;
6432;SDS011;3249;42.690;23.260;2024-02-14T08:31:49;10.07;;;8.90;;
6432;SDS011;3249;42.690;23.260;2024-02-14T08:34:18;9.03;;;8.20;;
6432;SDS011;3249;42.690;23.260;2024-02-14T08:36:47;12.83;;;8.43;;
6432;SDS011;3249;42.690;23.260;2024-02-14T08:39:17;9.77;;;8.20;;
6432;SDS011;3249;42.690;23.260;2024-02-14T08:41:49;8.97;;;8.27;;
6432;SDS011;3249;42.690;23.260;2024-02-14T08:44:19;9.23;;;8.23;;
6432;SDS011;3249;42.690;23.260;2024-02-14T08:46:48;10.03;;;8.13;;
6432;SDS011;3249;42.690;23.260;2024-02-14T08:49:18;11.37;;;9.20;;
6432;SDS011;3249;42.690;23.260;2024-02-14T08:51:47;8.87;;;7.97;;
6432;SDS011;3249;42.690;23.260;2024-02-14T08:54:16;11.37;;;7.97;;
6432;SDS011;3249;42.690;23.260;2024-02-14T08:56:49;9.27;;;8.07;;
6432;SDS011;3249;42.690;23.260;2024-02-14T08:59:21;8.10;;;7.30;;
6432;SDS011;3249;42.690;23.260;2024-02-14T09:01:50;9.90;;;9.00;;
6432;SDS011;3249;42.690;23.260;2024-02-14T09:04:19;9.63;;;8.37;;
6432;SDS011;3249;42.690;23.260;2024-02-14T09:06:49;8.97;;;8.07;;
6432;SDS011;3249;42.690;23.260;2024-02-14T09:09:19;8.27;;;6.27;;
6432;SDS011;3249;42.690;23.260;2024-02-14T09:11:51;9.07;;;8.17;;
6432;SDS011;3249;42.690;23.260;2024-02-14T09:14:21;8.40;;;7.67;;
6432;SDS011;3249;42.690;23.260;2024-02-14T09:16:50;8.07;;;7.27;;
6432;SDS011;3249;42.690;23.260;2024-02-14T09:19:20;11.47;;;9.20;;
6432;SDS011;3249;42.690;23.260;2024-02-14T09:21:49;8.30;;;7.53;;
6432;SDS011;3249;42.690;23.260;2024-02-14T09:24:18;8.97;;;8.07;;
6432;SDS011;3249;42.690;23.260;2024-02-14T09:26:47;9.90;;;8.30;;
6432;SDS011;3249;42.690;23.260;2024-02-14T09:29:20;9.20;;;8.30;;
6432;SDS011;3249;42.690;23.260;2024-02-14T09:31:50;9.47;;;8.57;;
6432;SDS011;3249;42.690;23.260;2024-02-14T09:34:19;9.40;;;8.17;;
6432;SDS011;3249;42.690;23.260;2024-02-14T09:36:50;9.57;;;8.50;;
6432;SDS011;3249;42.690;23.260;2024-02-14T09:39:22;10.20;;;9.17;;
6432;SDS011;3249;42.690;23.260;2024-02-14T09:41:53;9.97;;;5.87;;
6432;SDS011;3249;42.690;23.260;2024-02-14T09:44:30;8.93;;;8.13;;
6432;SDS011;3249;42.690;23.260;2024-02-14T09:47:01;11.60;;;8.57;;
6432;SDS011;3249;42.690;23.260;2024-02-14T09:49:32;9.43;;;8.10;;
6432;SDS011;3249;42.690;23.260;2024-02-14T09:52:06;7.27;;;6.50;;
6432;SDS011;3249;42.690;23.260;2024-02-14T09:54:37;6.13;;;5.60;;
6432;SDS011;3249;42.690;23.260;2024-02-14T09:57:07;6.63;;;5.97;;
6432;SDS011;3249;42.690;23.260;2024-02-14T09:59:40;9.43;;;7.90;;
6432;SDS011;3249;42.690;23.260;2024-02-14T10:02:11;9.33;;;8.43;;
6432;SDS011;3249;42.690;23.260;2024-02-14T10:04:40;8.60;;;7.63;;
6432;SDS011;3249;42.690;23.260;2024-02-14T10:07:09;8.80;;;7.93;;
6432;SDS011;3249;42.690;23.260;2024-02-14T10:09:41;8.17;;;7.40;;
6432;SDS011;3249;42.690;23.260;2024-02-14T10:12:11;7.77;;;6.87;;
6432;SDS011;3249;42.690;23.260;2024-02-14T10:14:44;8.67;;;7.47;;
6432;SDS011;3249;42.690;23.260;2024-02-14T10:17:19;9.40;;;8.40;;
6432;SDS011;3249;42.690;23.260;2024-02-14T10:19:55;8.53;;;7.17;;
6432;SDS011;3249;42.690;23.260;2024-02-14T10:22:27;8.47;;;7.67;;
6432;SDS011;3249;42.690;23.260;2024-02-14T10:25:03;7.17;;;6.30;;
6432;SDS011;3249;42.690;23.260;2024-02-14T10:27:35;9.50;;;7.73;;
6432;SDS011;3249;42.690;23.260;2024-02-14T10:30:09;8.07;;;7.17;;
6432;SDS011;3249;42.690;23.260;2024-02-14T10:32:40;8.63;;;7.63;;
6432;SDS011;3249;42.690;23.260;2024-02-14T10:35:13;8.13;;;7.17;;
6432;SDS011;3249;42.690;23.260;2024-02-14T10:37:43;6.53;;;5.93;;
6432;SDS011;3249;42.690;23.260;2024-02-14T10:40:15;7.93;;;7.07;;
6432;SDS011;3249;42.690;23.260;2024-02-14T10:42:44;8.80;;;8.00;;
6432;SDS011;3249;42.690;23.260;2024-02-14T10:45:19;7.73;;;7.03;;
6432;SDS011;3249;42.690;23.260;2024-02-14T10:47:49;7.83;;;6.60;;
6432;SDS011;3249;42.690;23.260;2024-02-14T10:50:21;7.50;;;6.70;;
6432;SDS011;3249;42.690;23.260;2024-02-14T10:52:51;6.97;;;6.37;;
6432;SDS011;3249;42.690;23.260;2024-02-14T10:55:26;8.90;;;7.80;;
6432;SDS011;3249;42.690;23.260;2024-02-14T10:57:59;9.47;;;7.70;;
6432;SDS011;3249;42.690;23.260;2024-02-14T11:00:33;8.07;;;7.27;;
6432;SDS011;3249;42.690;23.260;2024-02-14T11:03:02;7.27;;;6.67;;
6432;SDS011;3249;42.690;23.260;2024-02-14T11:05:42;7.37;;;6.60;;
6432;SDS011;3249;42.690;23.260;2024-02-14T11:08:13;8.57;;;7.63;;
6432;SDS011;3249;42.690;23.260;2024-02-14T11:10:43;10.70;;;7.93;;
6432;SDS011;3249;42.690;23.260;2024-02-14T11:13:21;8.43;;;7.53;;
6432;SDS011;3249;42.690;23.260;2024-02-14T11:15:57;7.13;;;6.17;;
6432;SDS011;3249;42.690;23.260;2024-02-14T11:18:30;9.83;;;7.60;;
6432;SDS011;3249;42.690;23.260;2024-02-14T11:21:02;8.13;;;7.33;;
6432;SDS011;3249;42.690;23.260;2024-02-14T11:23:41;7.93;;;7.13;;
6432;SDS011;3249;42.690;23.260;2024-02-14T11:26:22;8.70;;;7.40;;
6432;SDS011;3249;42.690;23.260;2024-02-14T11:28:59;8.87;;;8.00;;
6432;SDS011;3249;42.690;23.260;2024-02-14T11:31:36;14.50;;;8.73;;
6432;SDS011;3249;42.690;23.260;2024-02-14T11:34:11;8.30;;;7.47;;
6432;SDS011;3249;42.690;23.260;2024-02-14T11:36:41;7.93;;;7.13;;
6432;SDS011;3249;42.690;23.260;2024-02-14T11:39:15;9.97;;;8.97;;
6432;SDS011;3249;42.690;23.260;2024-02-14T11:41:47;13.37;;;8.63;;
6432;SDS011;3249;42.690;23.260;2024-02-14T11:44:24;8.53;;;7.73;;
6432;SDS011;3249;42.690;23.260;2024-02-14T11:46:57;9.13;;;7.90;;
6432;SDS011;3249;42.690;23.260;2024-02-14T11:49:26;8.27;;;7.53;;
6432;SDS011;3249;42.690;23.260;2024-02-14T11:51:56;8.63;;;7.80;;
6432;SDS011;3249;42.690;23.260;2024-02-14T11:54:25;9.57;;;7.57;;
6432;SDS011;3249;42.690;23.260;2024-02-14T11:56:54;7.77;;;7.07;;
6432;SDS011;3249;42.690;23.260;2024-02-14T11:59:24;8.37;;;7.57;;
6432;SDS011;3249;42.690;23.260;2024-02-14T12:01:53;10.17;;;7.83;;
6432;SDS011;3249;42.690;23.260;2024-02-14T12:04:26;10.23;;;8.67;;
6432;SDS011;3249;42.690;23.260;2024-02-14T12:06:56;9.10;;;7.90;;
6432;SDS011;3249;42.690;23.260;2024-02-14T12:09:25;10.33;;;7.37;;
6432;SDS011;3249;42.690;23.260;2024-02-14T12:11:57;10.40;;;8.03;;
6432;SDS011;3249;42.690;23.260;2024-02-14T12:14:26;8.93;;;7.40;;
6432;SDS011;3249;42.690;23.260;2024-02-14T12:16:56;7.50;;;6.80;;
6432;SDS011;3249;42.690;23.260;2024-02-14T12:19:31;9.10;;;8.20;;
6432;SDS011;3249;42.690;23.260;2024-02-14T12:22:08;8.93;;;7.10;;
6432;SDS011;3249;42.690;23.260;2024-02-14T12:24:43;14.83;;;9.97;;
6432;SDS011;3249;42.690;23.260;2024-02-14T12:27:16;9.07;;;7.53;;
6432;SDS011;3249;42.690;23.260;2024-02-14T12:29:46;8.20;;;7.40;;
6432;SDS011;3249;42.690;23.260;2024-02-14T12:32:16;7.87;;;7.07;;
6432;SDS011;3249;42.690;23.260;2024-02-14T12:34:48;8.00;;;7.20;;
6432;SDS011;3249;42.690;23.260;2024-02-14T12:37:18;9.63;;;8.60;;
6432;SDS011;3249;42.690;23.260;2024-02-14T12:39:50;9.13;;;8.23;;
6432;SDS011;3249;42.690;23.260;2024-02-14T12:42:21;10.13;;;8.30;;
6432;SDS011;3249;42.690;23.260;2024-02-14T12:44:54;9.37;;;7.97;;
6432;SDS011;3249;42.690;23.260;2024-02-14T12:47:25;14.70;;;7.73;;
6432;SDS011;3249;42.690;23.260;2024-02-14T12:50:00;9.93;;;6.87;;
6432;SDS011;3249;42.690;23.260;2024-02-14T12:52:29;7.37;;;6.67;;
6432;SDS011;3249;42.690;23.260;2024-02-14T12:54:59;7.10;;;6.50;;
6432;SDS011;3249;42.690;23.260;2024-02-14T12:57:29;8.73;;;7.13;;
6432;SDS011;3249;42.690;23.260;2024-02-14T12:59:58;8.40;;;7.53;;
6432;SDS011;3249;42.690;23.260;2024-02-14T13:02:34;8.90;;;6.77;;
6432;SDS011;3249;42.690;23.260;2024-02-14T13:05:07;7.87;;;7.17;;
6432;SDS011;3249;42.690;23.260;2024-02-14T13:07:36;9.63;;;7.07;;
6432;SDS011;3249;42.690;23.260;2024-02-14T13:10:18;7.50;;;6.80;;
6432;SDS011;3249;42.690;23.260;2024-02-14T13:12:51;7.30;;;6.60;;
6432;SDS011;3249;42.690;23.260;2024-02-14T13:15:20;8.47;;;7.53;;
6432;SDS011;3249;42.690;23.260;2024-02-14T13:17:50;8.63;;;7.73;;
6432;SDS011;3249;42.690;23.260;2024-02-14T13:20:21;7.17;;;6.53;;
6432;SDS011;3249;42.690;23.260;2024-02-14T13:22:50;10.30;;;7.63;;
6432;SDS011;3249;42.690;23.260;2024-02-14T13:25:20;7.47;;;6.77;;
6432;SDS011;3249;42.690;23.260;2024-02-14T13:27:49;8.37;;;7.37;;
6432;SDS011;3249;42.690;23.260;2024-02-14T13:30:19;7.20;;;6.50;;
6432;SDS011;3249;42.690;23.260;2024-02-14T13:32:51;9.03;;;6.80;;
6432;SDS011;3249;42.690;23.260;2024-02-14T13:35:24;8.17;;;6.90;;
6432;SDS011;3249;42.690;23.260;2024-02-14T13:37:53;8.03;;;6.67;;
6432;SDS011;3249;42.690;23.260;2024-02-14T13:40:24;8.87;;;7.73;;
6432;SDS011;3249;42.690;23.260;2024-02-14T13:42:54;7.03;;;6.33;;
6432;SDS011;3249;42.690;23.260;2024-02-14T13:45:23;8.40;;;7.60;;
6432;SDS011;3249;42.690;23.260;2024-02-14T13:48:01;7.90;;;7.10;;
6432;SDS011;3249;42.690;23.260;2024-02-14T13:50:36;7.60;;;6.90;;
6432;SDS011;3249;42.690;23.260;2024-02-14T13:53:07;16.07;;;12.23;;
6432;SDS011;3249;42.690;23.260;2024-02-14T13:55:36;9.80;;;8.17;;
6432;SDS011;3249;42.690;23.260;2024-02-14T13:58:06;8.50;;;6.87;;
6432;SDS011;3249;42.690;23.260;2024-02-14T14:00:41;7.20;;;6.50;;
6432;SDS011;3249;42.690;23.260;2024-02-14T14:03:12;7.23;;;6.53;;
6432;SDS011;3249;42.690;23.260;2024-02-14T14:05:43;8.37;;;6.80;;
6432;SDS011;3249;42.690;23.260;2024-02-14T14:08:16;8.80;;;7.60;;
6432;SDS011;3249;42.690;23.260;2024-02-14T14:10:45;7.70;;;6.83;;
6432;SDS011;3249;42.690;23.260;2024-02-14T14:13:15;9.30;;;7.60;;
6432;SDS011;3249;42.690;23.260;2024-02-14T14:15:44;8.63;;;7.23;;
6432;SDS011;3249;42.690;23.260;2024-02-14T14:18:14;8.17;;;6.97;;
6432;SDS011;3249;42.690;23.260;2024-02-14T14:20:46;11.20;;;7.53;;
6432;SDS011;3249;42.690;23.260;2024-02-14T14:23:16;11.43;;;7.60;;
6432;SDS011;3249;42.690;23.260;2024-02-14T14:25:45;7.67;;;6.57;;
6432;SDS011;3249;42.690;23.260;2024-02-14T14:28:15;8.70;;;7.00;;
6432;SDS011;3249;42.690;23.260;2024-02-14T14:30:45;8.13;;;7.23;;
6432;SDS011;3249;42.690;23.260;2024-02-14T14:33:16;9.87;;;7.17;;
6432;SDS011;3249;42.690;23.260;2024-02-14T14:35:50;7.63;;;6.93;;
6432;SDS011;3249;42.690;23.260;2024-02-14T14:38:21;11.63;;;7.60;;
6432;SDS011;3249;42.690;23.260;2024-02-14T14:40:52;11.23;;;7.53;;
6432;SDS011;3249;42.690;23.260;2024-02-14T14:43:21;7.70;;;6.90;;
6432;SDS011;3249;42.690;23.260;2024-02-14T14:45:50;12.43;;;5.90;;
6432;SDS011;3249;42.690;23.260;2024-02-14T14:48:22;7.10;;;6.43;;
6432;SDS011;3249;42.690;23.260;2024-02-14T14:50:54;11.17;;;7.70;;
6432;SDS011;3249;42.690;23.260;2024-02-14T14:53:23;6.47;;;5.77;;
6432;SDS011;3249;42.690;23.260;2024-02-14T14:55:53;7.80;;;6.63;;
6432;SDS011;3249;42.690;23.260;2024-02-14T14:58:25;7.73;;;6.87;;
6432;SDS011;3249;42.690;23.260;2024-02-14T15:01:00;11.53;;;7.37;;
6432;SDS011;3249;42.690;23.260;2024-02-14T15:03:32;9.07;;;6.80;;
6432;SDS011;3249;42.690;23.260;2024-02-14T15:06:04;8.20;;;7.40;;
6432;SDS011;3249;42.690;23.260;2024-02-14T15:08:33;10.77;;;7.10;;
6432;SDS011;3249;42.690;23.260;2024-02-14T15:11:04;9.77;;;6.90;;
6432;SDS011;3249;42.690;23.260;2024-02-14T15:13:34;11.07;;;6.70;;
6432;SDS011;3249;42.690;23.260;2024-02-14T15:16:04;7.80;;;6.90;;
6432;SDS011;3249;42.690;23.260;2024-02-14T15:18:34;8.93;;;6.67;;
6432;SDS011;3249;42.690;23.260;2024-02-14T15:21:09;9.13;;;7.57;;
6432;SDS011;3249;42.690;23.260;2024-02-14T15:23:38;10.07;;;7.37;;
6432;SDS011;3249;42.690;23.260;2024-02-14T15:26:10;12.33;;;8.20;;